sensor_id;sensor_type;location;lat;lon;timestamp;pressure;altitude;pressure_sealevel;temperature;humidity
13612;BME280;6877;51.436;6.774;2023-05-19T00:00:58;102059.09;;;8.18;72.27
13612;BME280;6877;51.436;6.774;2023-05-19T00:03:25;102069.41;;;8.10;72.54
13612;BME280;6877;51.436;6.774;2023-05-19T00:05:52;102070.22;;;8.03;72.52
13612;BME280;6877;51.436;6.774;2023-05-19T00:08:21;102068.34;;;7.94;72.44
13612;BME280;6877;51.436;6.774;2023-05-19T00:10:49;102063.03;;;7.88;72.87
13612;BME280;6877;51.436;6.774;2023-05-19T00:13:16;102068.31;;;7.91;73.71
13612;BME280;6877;51.436;6.774;2023-05-19T00:15:43;102066.66;;;7.96;74.37
13612;BME280;6877;51.436;6.774;2023-05-19T00:18:10;102064.03;;;7.95;73.45
13612;BME280;6877;51.436;6.774;2023-05-19T00:20:39;102073.50;;;7.91;73.95
13612;BME280;6877;51.436;6.774;2023-05-19T00:23:05;102071.72;;;7.85;74.08
13612;BME280;6877;51.436;6.774;2023-05-19T00:25:36;102071.59;;;7.76;73.93
13612;BME280;6877;51.436;6.774;2023-05-19T00:28:03;102066.28;;;7.70;74.73
13612;BME280;6877;51.436;6.774;2023-05-19T00:30:34;102065.34;;;7.63;74.34
13612;BME280;6877;51.436;6.774;2023-05-19T00:33:01;102061.78;;;7.58;75.09
13612;BME280;6877;51.436;6.774;2023-05-19T00:35:27;102063.56;;;7.61;76.28
13612;BME280;6877;51.436;6.774;2023-05-19T00:37:54;102063.56;;;7.61;75.34
13612;BME280;6877;51.436;6.774;2023-05-19T00:40:21;102063.41;;;7.53;75.17
13612;BME280;6877;51.436;6.774;2023-05-19T00:42:49;102067.75;;;7.51;76.46
13612;BME280;6877;51.436;6.774;2023-05-19T00:45:15;102070.31;;;7.50;76.82
13612;BME280;6877;51.436;6.774;2023-05-19T00:47:42;102068.53;;;7.46;76.75
13612;BME280;6877;51.436;6.774;2023-05-19T00:50:08;102065.06;;;7.45;76.86
13612;BME280;6877;51.436;6.774;2023-05-19T00:52:35;102069.31;;;7.40;76.96
13612;BME280;6877;51.436;6.774;2023-05-19T00:55:02;102064.88;;;7.34;77.23
13612;BME280;6877;51.436;6.774;2023-05-19T00:57:28;102058.75;;;7.31;77.56
13612;BME280;6877;51.436;6.774;2023-05-19T00:59:55;102063.06;;;7.29;77.55
13612;BME280;6877;51.436;6.774;2023-05-19T01:02:21;102063.94;;;7.31;78.85
13612;BME280;6877;51.436;6.774;2023-05-19T01:04:48;102059.59;;;7.31;78.32
13612;BME280;6877;51.436;6.774;2023-05-19T01:07:20;102063.91;;;7.28;78.30
13612;BME280;6877;51.436;6.774;2023-05-19T01:09:52;102060.50;;;7.32;79.89
13612;BME280;6877;51.436;6.774;2023-05-19T01:12:24;102062.19;;;7.30;78.88
13612;BME280;6877;51.436;6.774;2023-05-19T01:14:52;102058.78;;;7.34;79.54
13612;BME280;6877;51.436;6.774;2023-05-19T01:17:22;102057.06;;;7.34;79.99
13612;BME280;6877;51.436;6.774;2023-05-19T01:26:08;102055.47;;;7.42;80.53
13612;BME280;6877;51.436;6.774;2023-05-19T01:31:09;102055.31;;;7.32;80.36
13612;BME280;6877;51.436;6.774;2023-05-19T01:33:38;102044.03;;;7.33;81.23
13612;BME280;6877;51.436;6.774;2023-05-19T01:36:07;102046.69;;;7.36;80.91
13612;BME280;6877;51.436;6.774;2023-05-19T01:38:38;102051.94;;;7.39;81.24
13612;BME280;6877;51.436;6.774;2023-05-19T01:41:06;102050.94;;;7.31;80.78
13612;BME280;6877;51.436;6.774;2023-05-19T01:43:33;102053.47;;;7.28;81.67
13612;BME280;6877;51.436;6.774;2023-05-19T01:46:01;102060.41;;;7.26;81.53
13612;BME280;6877;51.436;6.774;2023-05-19T01:48:33;102049.84;;;7.16;81.73
13612;BME280;6877;51.436;6.774;2023-05-19T01:51:00;102056.69;;;7.11;81.66
13612;BME280;6877;51.436;6.774;2023-05-19T01:53:26;102072.19;;;7.05;81.67
13612;BME280;6877;51.436;6.774;2023-05-19T01:55:54;102065.03;;;6.92;82.07
13612;BME280;6877;51.436;6.774;2023-05-19T02:01:30;102066.91;;;6.99;83.13
13612;BME280;6877;51.436;6.774;2023-05-19T02:06:39;102068.66;;;7.00;82.72
13612;BME280;6877;51.436;6.774;2023-05-19T02:09:21;102070.41;;;7.01;83.48
13612;BME280;6877;51.436;6.774;2023-05-19T02:11:55;102060.09;;;7.07;83.85
13612;BME280;6877;51.436;6.774;2023-05-19T02:14:39;102059.34;;;7.14;83.32
13612;BME280;6877;51.436;6.774;2023-05-19T02:17:07;102061.78;;;7.05;82.43
13612;BME280;6877;51.436;6.774;2023-05-19T02:19:38;102068.66;;;7.00;83.65
13612;BME280;6877;51.436;6.774;2023-05-19T02:22:05;102060.75;;;6.95;83.71
13612;BME280;6877;51.436;6.774;2023-05-19T02:24:36;102061.56;;;6.91;83.42
13612;BME280;6877;51.436;6.774;2023-05-19T02:27:04;102069.34;;;6.90;84.43
13612;BME280;6877;51.436;6.774;2023-05-19T02:29:36;102056.22;;;6.84;84.04
13612;BME280;6877;51.436;6.774;2023-05-19T02:32:03;102062.25;;;6.81;84.80
13612;BME280;6877;51.436;6.774;2023-05-19T02:34:29;102058.75;;;6.81;84.94
13612;BME280;6877;51.436;6.774;2023-05-19T02:37:01;102054.47;;;6.83;85.44
13612;BME280;6877;51.436;6.774;2023-05-19T02:39:28;102054.47;;;6.81;84.88
13612;BME280;6877;51.436;6.774;2023-05-19T02:42:05;102050.94;;;6.81;85.38
13612;BME280;6877;51.436;6.774;2023-05-19T02:44:36;102044.75;;;6.74;85.57
13612;BME280;6877;51.436;6.774;2023-05-19T02:47:08;102038.75;;;6.77;85.86
13612;BME280;6877;51.436;6.774;2023-05-19T02:49:34;102038.75;;;6.77;85.88
13612;BME280;6877;51.436;6.774;2023-05-19T02:52:04;102038.75;;;6.77;86.06
13612;BME280;6877;51.436;6.774;2023-05-19T02:54:31;102033.69;;;6.84;86.31
13612;BME280;6877;51.436;6.774;2023-05-19T02:56:58;102028.59;;;6.92;86.08
13612;BME280;6877;51.436;6.774;2023-05-19T02:59:25;102028.81;;;7.04;85.51
13612;BME280;6877;51.436;6.774;2023-05-19T03:01:54;102033.25;;;7.10;85.09
13612;BME280;6877;51.436;6.774;2023-05-19T03:04:26;102029.13;;;7.23;84.74
13612;BME280;6877;51.436;6.774;2023-05-19T03:06:53;102030.09;;;7.31;84.22
13612;BME280;6877;51.436;6.774;2023-05-19T03:09:20;102034.41;;;7.29;84.04
13612;BME280;6877;51.436;6.774;2023-05-19T03:11:46;102037.06;;;7.32;84.41
13612;BME280;6877;51.436;6.774;2023-05-19T03:14:12;102035.28;;;7.29;84.29
13612;BME280;6877;51.436;6.774;2023-05-19T03:16:39;102043.06;;;7.28;84.20
13612;BME280;6877;51.436;6.774;2023-05-19T03:19:07;102041.38;;;7.28;84.48
13612;BME280;6877;51.436;6.774;2023-05-19T03:21:34;102043.97;;;7.28;84.01
13612;BME280;6877;51.436;6.774;2023-05-19T03:24:05;102041.31;;;7.27;84.10
13612;BME280;6877;51.436;6.774;2023-05-19T03:26:33;102038.66;;;7.22;84.51
13612;BME280;6877;51.436;6.774;2023-05-19T03:29:00;102040.38;;;7.22;84.75
13612;BME280;6877;51.436;6.774;2023-05-19T03:31:26;102032.41;;;7.12;84.31
13612;BME280;6877;51.436;6.774;2023-05-19T03:33:52;102040.13;;;7.06;85.03
13612;BME280;6877;51.436;6.774;2023-05-19T03:36:19;102031.41;;;7.04;85.40
13612;BME280;6877;51.436;6.774;2023-05-19T03:38:47;102038.47;;;7.10;85.67
13612;BME280;6877;51.436;6.774;2023-05-19T03:41:13;102038.47;;;7.11;85.40
13612;BME280;6877;51.436;6.774;2023-05-19T03:43:40;102038.50;;;7.13;85.61
13612;BME280;6877;51.436;6.774;2023-05-19T03:46:07;102032.41;;;7.12;85.67
13612;BME280;6877;51.436;6.774;2023-05-19T03:48:33;102041.06;;;7.11;85.39
13612;BME280;6877;51.436;6.774;2023-05-19T03:51:00;102041.13;;;7.14;85.73
13612;BME280;6877;51.436;6.774;2023-05-19T03:53:26;102042.91;;;7.18;85.58
13612;BME280;6877;51.436;6.774;2023-05-19T03:55:55;102037.75;;;7.22;85.16
13612;BME280;6877;51.436;6.774;2023-05-19T03:58:22;102035.25;;;7.26;85.03
13612;BME280;6877;51.436;6.774;2023-05-19T04:00:54;102041.38;;;7.30;84.79
13612;BME280;6877;51.436;6.774;2023-05-19T04:03:20;102027.59;;;7.37;84.40
13612;BME280;6877;51.436;6.774;2023-05-19T04:05:47;102033.69;;;7.39;84.22
13612;BME280;6877;51.436;6.774;2023-05-19T04:08:13;102028.50;;;7.39;84.24
13612;BME280;6877;51.436;6.774;2023-05-19T04:10:40;102036.34;;;7.42;84.32
13612;BME280;6877;51.436;6.774;2023-05-19T04:13:07;102041.63;;;7.47;84.04
13612;BME280;6877;51.436;6.774;2023-05-19T04:15:33;102053.78;;;7.46;84.02
13612;BME280;6877;51.436;6.774;2023-05-19T04:18:00;102048.66;;;7.52;83.85
13612;BME280;6877;51.436;6.774;2023-05-19T04:20:26;102053.97;;;7.58;83.34
13612;BME280;6877;51.436;6.774;2023-05-19T04:22:53;102051.53;;;7.72;83.06
13612;BME280;6877;51.436;6.774;2023-05-19T04:25:19;102059.78;;;8.01;81.97
13612;BME280;6877;51.436;6.774;2023-05-19T04:27:45;102049.53;;;8.18;80.85
13612;BME280;6877;51.436;6.774;2023-05-19T04:30:13;102048.63;;;8.15;80.59
13612;BME280;6877;51.436;6.774;2023-05-19T04:32:47;102049.53;;;8.17;80.57
13612;BME280;6877;51.436;6.774;2023-05-19T04:35:18;102052.25;;;8.29;80.31
13612;BME280;6877;51.436;6.774;2023-05-19T04:37:45;102047.09;;;8.30;79.76
13612;BME280;6877;51.436;6.774;2023-05-19T04:40:12;102048.00;;;8.32;79.80
13612;BME280;6877;51.436;6.774;2023-05-19T04:42:38;102048.09;;;8.40;79.44
13612;BME280;6877;51.436;6.774;2023-05-19T04:45:15;102048.16;;;8.48;79.21
13612;BME280;6877;51.436;6.774;2023-05-19T04:47:42;102049.06;;;8.50;78.78
13612;BME280;6877;51.436;6.774;2023-05-19T04:50:09;102064.06;;;8.68;78.54
13612;BME280;6877;51.436;6.774;2023-05-19T04:52:36;102064.31;;;8.92;77.92
13612;BME280;6877;51.436;6.774;2023-05-19T04:55:03;102053.19;;;9.15;76.42
13612;BME280;6877;51.436;6.774;2023-05-19T04:57:30;102064.47;;;9.12;76.01
13612;BME280;6877;51.436;6.774;2023-05-19T04:59:56;102057.41;;;9.00;76.28
13612;BME280;6877;51.436;6.774;2023-05-19T05:02:25;102060.78;;;8.90;76.61
13612;BME280;6877;51.436;6.774;2023-05-19T05:04:55;102064.22;;;8.83;77.17
13612;BME280;6877;51.436;6.774;2023-05-19T05:07:22;102062.50;;;8.88;77.40
13612;BME280;6877;51.436;6.774;2023-05-19T05:09:48;102060.78;;;8.90;77.39
13612;BME280;6877;51.436;6.774;2023-05-19T05:12:16;102061.66;;;8.91;77.01
13612;BME280;6877;51.436;6.774;2023-05-19T05:14:43;102063.31;;;8.81;77.33
13612;BME280;6877;51.436;6.774;2023-05-19T05:17:10;102064.19;;;8.80;77.64
13612;BME280;6877;51.436;6.774;2023-05-19T05:19:38;102065.06;;;8.85;77.63
13612;BME280;6877;51.436;6.774;2023-05-19T05:22:05;102069.53;;;8.92;77.16
13612;BME280;6877;51.436;6.774;2023-05-19T05:24:32;102063.53;;;9.05;76.80
13612;BME280;6877;51.436;6.774;2023-05-19T05:26:58;102066.38;;;9.30;75.60
13612;BME280;6877;51.436;6.774;2023-05-19T05:29:25;102068.34;;;9.62;74.35
13612;BME280;6877;51.436;6.774;2023-05-19T05:31:57;102062.47;;;10.06;72.02
13612;BME280;6877;51.436;6.774;2023-05-19T05:34:28;102066.13;;;10.38;70.62
13612;BME280;6877;51.436;6.774;2023-05-19T05:37:00;102073.13;;;10.49;69.75
13612;BME280;6877;51.436;6.774;2023-05-19T05:39:26;102077.47;;;10.48;69.54
13612;BME280;6877;51.436;6.774;2023-05-19T05:41:58;102066.97;;;10.39;69.61
13612;BME280;6877;51.436;6.774;2023-05-19T05:44:24;102069.53;;;10.25;70.18
13612;BME280;6877;51.436;6.774;2023-05-19T05:46:51;102068.69;;;10.31;70.36
13612;BME280;6877;51.436;6.774;2023-05-19T05:49:22;102063.56;;;10.57;69.48
13612;BME280;6877;51.436;6.774;2023-05-19T05:51:49;102062.72;;;10.99;67.90
13612;BME280;6877;51.436;6.774;2023-05-19T05:54:19;102058.38;;;11.30;66.19
13612;BME280;6877;51.436;6.774;2023-05-19T05:56:52;102054.00;;;11.29;65.43
13612;BME280;6877;51.436;6.774;2023-05-19T05:59:18;102048.78;;;11.35;66.01
13612;BME280;6877;51.436;6.774;2023-05-19T06:01:45;102048.69;;;11.63;64.65
13612;BME280;6877;51.436;6.774;2023-05-19T06:04:16;102050.41;;;11.93;63.29
13612;BME280;6877;51.436;6.774;2023-05-19T06:06:43;102043.41;;;11.94;62.99
13612;BME280;6877;51.436;6.774;2023-05-19T06:09:09;102053.06;;;11.95;62.75
13612;BME280;6877;51.436;6.774;2023-05-19T06:11:36;102046.91;;;11.82;62.86
13612;BME280;6877;51.436;6.774;2023-05-19T06:14:02;102050.47;;;11.55;62.81
13612;BME280;6877;51.436;6.774;2023-05-19T06:16:29;102040.03;;;11.30;64.08
13612;BME280;6877;51.436;6.774;2023-05-19T06:18:55;102037.41;;;11.33;64.59
13612;BME280;6877;51.436;6.774;2023-05-19T06:21:28;102042.63;;;11.40;64.31
13612;BME280;6877;51.436;6.774;2023-05-19T06:23:55;102044.34;;;11.65;63.78
13612;BME280;6877;51.436;6.774;2023-05-19T06:26:21;102042.56;;;11.89;62.36
13612;BME280;6877;51.436;6.774;2023-05-19T06:28:48;102051.28;;;11.97;62.07
13612;BME280;6877;51.436;6.774;2023-05-19T06:31:14;102043.38;;;12.04;61.56
13612;BME280;6877;51.436;6.774;2023-05-19T06:33:41;102051.16;;;12.23;61.21
13612;BME280;6877;51.436;6.774;2023-05-19T06:36:08;102049.41;;;12.28;60.28
13612;BME280;6877;51.436;6.774;2023-05-19T06:38:35;102050.22;;;12.42;59.96
13612;BME280;6877;51.436;6.774;2023-05-19T06:41:01;102052.72;;;12.59;59.35
13612;BME280;6877;51.436;6.774;2023-05-19T06:43:28;102053.38;;;12.93;58.99
13612;BME280;6877;51.436;6.774;2023-05-19T06:46:00;102055.00;;;13.99;56.23
13612;BME280;6877;51.436;6.774;2023-05-19T06:48:32;102070.81;;;14.67;52.77
13612;BME280;6877;51.436;6.774;2023-05-19T06:50:58;102056.44;;;14.90;51.68
13612;BME280;6877;51.436;6.774;2023-05-19T06:53:25;102058.59;;;15.19;50.52
13612;BME280;6877;51.436;6.774;2023-05-19T06:55:51;102061.13;;;15.25;49.91
13612;BME280;6877;51.436;6.774;2023-05-19T06:58:18;102053.00;;;15.37;49.90
13612;BME280;6877;51.436;6.774;2023-05-19T07:00:44;102057.78;;;15.65;48.94
13612;BME280;6877;51.436;6.774;2023-05-19T07:03:16;102055.19;;;15.62;48.75
13612;BME280;6877;51.436;6.774;2023-05-19T07:05:47;102062.03;;;16.17;47.43
13612;BME280;6877;51.436;6.774;2023-05-19T07:08:14;102055.00;;;16.17;46.38
13612;BME280;6877;51.436;6.774;2023-05-19T07:10:40;102054.41;;;16.03;47.00
13612;BME280;6877;51.436;6.774;2023-05-19T07:13:06;102057.19;;;15.97;46.91
13612;BME280;6877;51.436;6.774;2023-05-19T07:15:33;102055.22;;;15.60;47.32
13612;BME280;6877;51.436;6.774;2023-05-19T07:17:59;102059.94;;;15.41;47.92
13612;BME280;6877;51.436;6.774;2023-05-19T07:20:26;102053.00;;;15.37;48.20
13612;BME280;6877;51.436;6.774;2023-05-19T07:22:58;102047.63;;;15.43;47.84
13612;BME280;6877;51.436;6.774;2023-05-19T07:25:24;102053.22;;;15.25;47.91
13612;BME280;6877;51.436;6.774;2023-05-19T07:27:57;102048.41;;;15.47;48.44
13612;BME280;6877;51.436;6.774;2023-05-19T07:30:29;102040.38;;;16.01;47.10
13612;BME280;6877;51.436;6.774;2023-05-19T07:33:00;102045.59;;;16.83;44.49
13612;BME280;6877;51.436;6.774;2023-05-19T07:35:27;102045.97;;;17.40;43.01
13612;BME280;6877;51.436;6.774;2023-05-19T07:37:53;102047.59;;;18.09;41.36
13612;BME280;6877;51.436;6.774;2023-05-19T07:40:22;102043.66;;;18.52;40.60
13612;BME280;6877;51.436;6.774;2023-05-19T07:42:55;102047.19;;;18.23;41.40
13612;BME280;6877;51.436;6.774;2023-05-19T07:45:21;102055.97;;;18.53;40.72
13612;BME280;6877;51.436;6.774;2023-05-19T07:47:48;102054.38;;;19.05;38.38
13612;BME280;6877;51.436;6.774;2023-05-19T07:50:19;102055.19;;;19.84;36.51
13612;BME280;6877;51.436;6.774;2023-05-19T07:52:46;102044.00;;;20.90;34.88
13612;BME280;6877;51.436;6.774;2023-05-19T07:55:12;102043.72;;;20.96;34.20
13612;BME280;6877;51.436;6.774;2023-05-19T07:57:45;102044.84;;;21.33;34.03
13612;BME280;6877;51.436;6.774;2023-05-19T08:00:11;102044.63;;;21.60;33.53
13612;BME280;6877;51.436;6.774;2023-05-19T08:02:43;102056.03;;;21.82;32.42
13612;BME280;6877;51.436;6.774;2023-05-19T08:05:10;102055.25;;;22.38;30.79
13612;BME280;6877;51.436;6.774;2023-05-19T08:07:36;102042.22;;;24.23;28.11
13612;BME280;6877;51.436;6.774;2023-05-19T08:10:03;102052.66;;;25.66;26.28
13612;BME280;6877;51.436;6.774;2023-05-19T08:12:29;102060.06;;;27.02;24.08
13612;BME280;6877;51.436;6.774;2023-05-19T08:14:56;102058.03;;;27.97;23.37
13612;BME280;6877;51.436;6.774;2023-05-19T08:17:28;102054.56;;;29.05;21.42
13612;BME280;6877;51.436;6.774;2023-05-19T08:19:59;102063.09;;;30.81;20.44
13612;BME280;6877;51.436;6.774;2023-05-19T08:22:26;102056.41;;;32.11;18.41
13612;BME280;6877;51.436;6.774;2023-05-19T08:24:57;102060.13;;;32.89;18.04
13612;BME280;6877;51.436;6.774;2023-05-19T08:27:24;102055.47;;;33.67;16.94
13612;BME280;6877;51.436;6.774;2023-05-19T08:29:50;102046.25;;;33.40;16.58
13612;BME280;6877;51.436;6.774;2023-05-19T08:32:17;102043.50;;;33.60;16.89
13612;BME280;6877;51.436;6.774;2023-05-19T08:34:43;102052.22;;;34.56;16.19
13612;BME280;6877;51.436;6.774;2023-05-19T08:37:10;102036.03;;;33.72;15.74
13612;BME280;6877;51.436;6.774;2023-05-19T08:39:42;102045.41;;;33.87;15.68
13612;BME280;6877;51.436;6.774;2023-05-19T08:42:08;102038.94;;;34.25;15.38
13612;BME280;6877;51.436;6.774;2023-05-19T08:44:40;102034.34;;;32.35;16.08
13612;BME280;6877;51.436;6.774;2023-05-19T08:47:13;102033.63;;;31.31;17.22
13612;BME280;6877;51.436;6.774;2023-05-19T08:49:44;102027.50;;;29.76;18.23
13612;BME280;6877;51.436;6.774;2023-05-19T08:55:11;102026.63;;;31.80;16.07
13612;BME280;6877;51.436;6.774;2023-05-19T08:57:39;102027.97;;;31.65;16.24
13612;BME280;6877;51.436;6.774;2023-05-19T09:00:07;102040.75;;;30.79;16.87
13612;BME280;6877;51.436;6.774;2023-05-19T09:02:42;102030.31;;;30.74;17.45
13612;BME280;6877;51.436;6.774;2023-05-19T09:05:09;102019.69;;;30.61;17.32
13612;BME280;6877;51.436;6.774;2023-05-19T09:07:36;102014.34;;;31.45;16.48
13612;BME280;6877;51.436;6.774;2023-05-19T09:10:08;102016.13;;;32.37;15.90
13612;BME280;6877;51.436;6.774;2023-05-19T09:12:34;102015.28;;;32.94;15.21
13612;BME280;6877;51.436;6.774;2023-05-19T09:15:01;102014.53;;;32.34;14.99
13612;BME280;6877;51.436;6.774;2023-05-19T09:17:27;102009.59;;;32.49;15.31
13612;BME280;6877;51.436;6.774;2023-05-19T09:20:03;102010.19;;;32.52;15.83
13612;BME280;6877;51.436;6.774;2023-05-19T09:22:40;102007.63;;;32.99;15.20
13612;BME280;6877;51.436;6.774;2023-05-19T09:25:23;102011.59;;;34.27;14.31
13612;BME280;6877;51.436;6.774;2023-05-19T09:27:53;102003.34;;;33.91;14.33
13612;BME280;6877;51.436;6.774;2023-05-19T09:30:24;102007.84;;;34.10;14.05
13612;BME280;6877;51.436;6.774;2023-05-19T09:32:51;102003.59;;;33.23;14.35
13612;BME280;6877;51.436;6.774;2023-05-19T09:35:17;101997.63;;;32.71;15.08
13612;BME280;6877;51.436;6.774;2023-05-19T09:37:45;102001.72;;;33.98;13.89
13612;BME280;6877;51.436;6.774;2023-05-19T09:40:17;101993.09;;;33.85;13.87
13612;BME280;6877;51.436;6.774;2023-05-19T09:42:43;101994.44;;;33.24;14.28
13612;BME280;6877;51.436;6.774;2023-05-19T09:45:10;101984.47;;;31.87;15.69
13612;BME280;6877;51.436;6.774;2023-05-19T09:47:42;101977.09;;;31.89;15.84
13612;BME280;6877;51.436;6.774;2023-05-19T09:50:14;101979.25;;;31.95;15.53
13612;BME280;6877;51.436;6.774;2023-05-19T09:52:45;101984.84;;;31.42;16.00
13612;BME280;6877;51.436;6.774;2023-05-19T09:55:13;101986.78;;;31.09;16.13
13612;BME280;6877;51.436;6.774;2023-05-19T09:57:45;101971.56;;;31.60;15.79
13612;BME280;6877;51.436;6.774;2023-05-19T10:00:12;101971.94;;;31.55;16.07
13612;BME280;6877;51.436;6.774;2023-05-19T10:02:43;101965.81;;;30.81;16.43
13612;BME280;6877;51.436;6.774;2023-05-19T10:05:16;101963.91;;;30.60;16.91
13612;BME280;6877;51.436;6.774;2023-05-19T10:07:45;101954.75;;;30.73;16.82
13612;BME280;6877;51.436;6.774;2023-05-19T10:10:15;101964.66;;;31.46;16.13
13612;BME280;6877;51.436;6.774;2023-05-19T10:12:47;101957.88;;;31.31;16.04
13612;BME280;6877;51.436;6.774;2023-05-19T10:15:19;101965.38;;;30.97;15.90
13612;BME280;6877;51.436;6.774;2023-05-19T10:17:45;101960.56;;;30.36;16.95
13612;BME280;6877;51.436;6.774;2023-05-19T10:20:17;101946.31;;;31.29;16.15
13612;BME280;6877;51.436;6.774;2023-05-19T10:22:45;101957.72;;;30.69;16.85
13612;BME280;6877;51.436;6.774;2023-05-19T10:25:16;101957.66;;;29.15;17.66
13612;BME280;6877;51.436;6.774;2023-05-19T10:27:55;101960.28;;;29.95;17.26
13612;BME280;6877;51.436;6.774;2023-05-19T10:30:33;101958.94;;;31.80;15.95
13612;BME280;6877;51.436;6.774;2023-05-19T10:33:09;101950.13;;;31.37;15.91
13612;BME280;6877;51.436;6.774;2023-05-19T10:35:58;101956.66;;;30.93;16.18
13612;BME280;6877;51.436;6.774;2023-05-19T10:38:39;101958.91;;;30.01;16.82
13612;BME280;6877;51.436;6.774;2023-05-19T10:46:43;101942.53;;;29.48;17.21
13612;BME280;6877;51.436;6.774;2023-05-19T10:49:21;101943.31;;;28.68;17.96
13612;BME280;6877;51.436;6.774;2023-05-19T10:51:48;101943.25;;;28.33;18.57
13612;BME280;6877;51.436;6.774;2023-05-19T10:54:41;101931.88;;;29.00;17.98
13612;BME280;6877;51.436;6.774;2023-05-19T10:57:13;101943.94;;;30.08;17.18
13612;BME280;6877;51.436;6.774;2023-05-19T10:59:41;101942.81;;;30.11;16.54
13612;BME280;6877;51.436;6.774;2023-05-19T11:02:39;101940.41;;;29.85;16.11
13612;BME280;6877;51.436;6.774;2023-05-19T11:05:15;101921.28;;;28.74;17.81
13612;BME280;6877;51.436;6.774;2023-05-19T11:07:54;101932.50;;;29.61;17.46
13612;BME280;6877;51.436;6.774;2023-05-19T11:10:22;101930.59;;;29.95;16.79
13612;BME280;6877;51.436;6.774;2023-05-19T11:12:49;101931.13;;;29.67;17.54
13612;BME280;6877;51.436;6.774;2023-05-19T11:15:15;101920.13;;;28.30;18.53
13612;BME280;6877;51.436;6.774;2023-05-19T11:17:47;101923.63;;;28.44;18.44
13612;BME280;6877;51.436;6.774;2023-05-19T11:20:24;101926.50;;;28.53;18.17
13612;BME280;6877;51.436;6.774;2023-05-19T11:23:14;101918.94;;;29.16;17.96
13612;BME280;6877;51.436;6.774;2023-05-19T11:25:50;101917.00;;;29.18;18.32
13612;BME280;6877;51.436;6.774;2023-05-19T11:28:22;101910.56;;;28.26;19.46
13612;BME280;6877;51.436;6.774;2023-05-19T11:30:53;101899.28;;;26.96;21.13
13612;BME280;6877;51.436;6.774;2023-05-19T11:33:20;101911.25;;;25.84;21.95
13612;BME280;6877;51.436;6.774;2023-05-19T11:35:57;101899.28;;;23.81;23.58
13612;BME280;6877;51.436;6.774;2023-05-19T11:38:28;101899.16;;;23.18;24.83
13612;BME280;6877;51.436;6.774;2023-05-19T11:40:59;101900.31;;;23.30;24.97
13612;BME280;6877;51.436;6.774;2023-05-19T11:43:26;101902.88;;;23.31;24.89
13612;BME280;6877;51.436;6.774;2023-05-19T11:45:53;101891.09;;;22.67;26.18
13612;BME280;6877;51.436;6.774;2023-05-19T11:48:21;101883.06;;;22.33;27.03
13612;BME280;6877;51.436;6.774;2023-05-19T11:50:47;101886.63;;;21.95;27.75
13612;BME280;6877;51.436;6.774;2023-05-19T11:53:19;101872.91;;;21.67;27.41
13612;BME280;6877;51.436;6.774;2023-05-19T11:55:47;101879.03;;;20.90;28.34
13612;BME280;6877;51.436;6.774;2023-05-19T11:58:16;101873.44;;;20.76;29.17
13612;BME280;6877;51.436;6.774;2023-05-19T12:00:48;101879.94;;;20.89;27.72
13612;BME280;6877;51.436;6.774;2023-05-19T12:03:14;101872.16;;;21.05;28.11
13612;BME280;6877;51.436;6.774;2023-05-19T12:05:47;101869.72;;;21.40;27.86
13612;BME280;6877;51.436;6.774;2023-05-19T12:08:14;101869.28;;;21.68;27.98
13612;BME280;6877;51.436;6.774;2023-05-19T12:10:42;101862.72;;;21.37;27.93
13612;BME280;6877;51.436;6.774;2023-05-19T12:13:13;101866.22;;;20.98;28.49
13612;BME280;6877;51.436;6.774;2023-05-19T12:15:40;101866.97;;;21.02;28.40
13612;BME280;6877;51.436;6.774;2023-05-19T12:18:06;101862.44;;;20.83;28.68
13612;BME280;6877;51.436;6.774;2023-05-19T12:20:33;101855.34;;;20.64;28.80
13612;BME280;6877;51.436;6.774;2023-05-19T12:23:01;101850.16;;;20.60;28.83
13612;BME280;6877;51.436;6.774;2023-05-19T12:25:28;101852.97;;;20.78;28.79
13612;BME280;6877;51.436;6.774;2023-05-19T12:27:58;101853.88;;;20.97;29.34
13612;BME280;6877;51.436;6.774;2023-05-19T12:30:26;101847.34;;;21.04;29.31
13612;BME280;6877;51.436;6.774;2023-05-19T12:32:56;101854.34;;;21.26;28.59
13612;BME280;6877;51.436;6.774;2023-05-19T12:35:28;101848.78;;;21.51;28.69
13612;BME280;6877;51.436;6.774;2023-05-19T12:37:54;101840.84;;;21.49;28.61
13612;BME280;6877;51.436;6.774;2023-05-19T12:40:28;101836.50;;;21.09;28.89
13612;BME280;6877;51.436;6.774;2023-05-19T12:42:57;101841.88;;;21.08;28.94
13612;BME280;6877;51.436;6.774;2023-05-19T12:45:24;101838.75;;;20.98;29.47
13612;BME280;6877;51.436;6.774;2023-05-19T12:47:54;101830.38;;;20.87;29.17
13612;BME280;6877;51.436;6.774;2023-05-19T12:50:31;101836.31;;;20.73;29.14
13612;BME280;6877;51.436;6.774;2023-05-19T12:52:59;101828.69;;;20.23;29.89
13612;BME280;6877;51.436;6.774;2023-05-19T12:55:25;101812.88;;;20.20;30.09
13612;BME280;6877;51.436;6.774;2023-05-19T12:57:57;101817.66;;;20.32;29.41
13612;BME280;6877;51.436;6.774;2023-05-19T13:00:24;101810.25;;;20.40;29.41
13612;BME280;6877;51.436;6.774;2023-05-19T13:02:55;101819.38;;;20.55;29.23
13612;BME280;6877;51.436;6.774;2023-05-19T13:05:21;101810.88;;;20.45;29.06
13612;BME280;6877;51.436;6.774;2023-05-19T13:08:00;101810.06;;;20.23;29.80
13612;BME280;6877;51.436;6.774;2023-05-19T13:10:30;101811.66;;;20.27;30.66
13612;BME280;6877;51.436;6.774;2023-05-19T13:12:57;101811.88;;;20.22;30.34
13612;BME280;6877;51.436;6.774;2023-05-19T13:15:26;101819.47;;;20.31;30.51
13612;BME280;6877;51.436;6.774;2023-05-19T13:17:54;101811.28;;;20.36;30.48
13612;BME280;6877;51.436;6.774;2023-05-19T13:20:21;101808.03;;;20.29;30.08
13612;BME280;6877;51.436;6.774;2023-05-19T13:22:52;101800.47;;;20.41;30.32
13612;BME280;6877;51.436;6.774;2023-05-19T13:25:19;101803.81;;;20.24;30.52
13612;BME280;6877;51.436;6.774;2023-05-19T13:27:47;101809.38;;;19.97;30.88
13612;BME280;6877;51.436;6.774;2023-05-19T13:30:14;101802.75;;;20.07;31.00
13612;BME280;6877;51.436;6.774;2023-05-19T13:32:44;101808.41;;;20.20;31.30
13612;BME280;6877;51.436;6.774;2023-05-19T13:35:12;101799.91;;;20.32;30.76
13612;BME280;6877;51.436;6.774;2023-05-19T13:37:43;101800.94;;;20.50;30.66